Aérodrome :
LOGIN :

S'inscrire | Disclaimer

   EN    FR    IT 

 










Légende :    VFR   VFR Marginal   IFR   IFR Intensif   IFR Très Intensif
Visi : 
Plafond : 
>= 8 km
>= 3000ft
5 à 8 km
1000 à 3000 ft
1500m à 5 km
500 à 1000 ft
800 à 1500m
200 à 500 ft
< 800m
< 200 ft
Symboles :   Orages  Brouillard  Fortes neiges  Fortes précipitations  Vent > 20 kt
SIGMETs :   Divers  Orages  Givrage  Turbulence  Onde Orograph.  Cendres Volcan.







- Altitude de l'aérodrome : 645 ft
- Code IATA : DLE
- Voir les cartes d'approche


LFGJ - Dole Tavaux

DERNIER METAR :
  • 191830Z AUTO VRB02KT CAVOK 12/10 Q1022 NOSIG

METARs EXPIRÉS :
  • 191800Z AUTO 00000KT 9999 FEW031/// OVC072/// ///TCU 12/10 Q1022 BECMG FEW015 BKN040
  • 191730Z AUTO 08003KT 9999 FEW029 OVC068 13/11 Q1021 NOSIG
  • 191700Z AUTO 08006KT 9999 FEW023/// BKN029/// BKN034/// ///TCU 13/11 Q1021 BECMG FEW015 BKN040
  • 191630Z AUTO VRB02KT 9999 FEW029/// OVC036/// ///TCU 15/11 Q1021 BECMG FEW015 BKN040
  • 191600Z AUTO 02003KT 9999 FEW038/// ///TCU 14/10 Q1020 TEMPO 4000 SHRA SCT015CB

TAF TAF LFGJ
Valide du 19 à 15h jusqu'au 20 à 00h UTC


191400Z 1915/1924 VRB04KT 9999 FEW015 BKN040
TEMPO 1915/1917 35010KT 4000 SHRA SCT015CB
PROB30
TEMPO 1915/1917 TSRA
PROB30
TEMPO 1917/1921 -SHRA
PROB30
TEMPO 1921/1924 4000 BR
Pas de NOTAMs connus pour ce terrain.
1 SIGMET publié pour la FIR Reims (LFEE) :
 
Turbulence forte
LFEE SIGMET 2 VALID 191600/191800 LFPW
LFEE REIMS FIR/UIR SEV TURB FCST WI N4630 E00545 - N4630 E00500 - N4830 E00545 - N4815 E00645 FL200/300 MOV E 20KT WKN=



MET'MAP, la Météo Aéronautique d'un coup d'oeil ! - Copyright ORBIFLY Décembre 2007 - Disclaimer

ORBIFLY MET'MAP TEAM :

Programmation & Développement : Alexandra Zaïnal
Conception & Développement : Baudouin d'Aumeries
Co-Programmation & Développement : Marc-Olivier Méhu
Soutien technique & logistique : Manuel Goepfert

Contact : metmap@orbifly.com




SOURCES & CREDITS :

   NOAA